Avoca, Arkansas
Current Conditions -  °F | °C
As of 7:57 AM on Thursday 23 Oct 2014 (Local Time) from KROG Reporting Station
Overcast Overcast  
Wind Chill: 54°   Ceiling: 11000
Heat Index: 54°   Visibility: 10mi
Dew Point: 48°   Wind: 6mph
Humidity: 80%   Direction: 140°SE
Pressure: 30.18"   Gusts: NA
Location:  36.4°N, 94.07°W
Report Text: KROG 231257Z 14005KT 10SM OVC110 12/09 A3018 RMK AO2 SLP215 T01220089
Loading
Personal Weather Stations






























Interactive Weather Map
Tropical Storm Tracking
New forecast layout! Learn more

10-Day Weather Forecast

Advertisements
Track Severe Weather on mobile